首页
METAR-TAF:

METAR-TAF

机场 :

恰斯拉夫, 捷克共和国

纬度: 49-56-23N, 经度: 15-22-55E, 海拔: 242米

当前天气观测

该预报发布于48分钟前的04:00 UTC
风速13节,风向西转西南
温度 6°C
湿度 81%
气压 1013 hPa
能见度10公里或以上
多云层高于3000英尺
阴天层高于4500英尺
小雨

METAR: LKCV 210400Z 24013KT 9999 -RA BKN030 OVC045 06/03 Q1013 NOSIG RMK BLU BLU

时间: 05:48 (04:48 UTC)

预报

该预报发布于5小时和48分钟前的23:00 UTC
预报有效从21日的 00点(UTC)到 22日的 00点(UTC)
风速10节,风向
能见度10公里或以上
多云层高于4000英尺
短暂存在
从 21日的 02点(UTC)到 21日的 10点(UTC)
风速18节,风向西转西南,有时为30节阵风
能見度: 7000
多云层高于2000英尺
阴天层高于3000英尺
几率 30% :
短暂存在
从 21日的 03点(UTC)到 21日的 10点(UTC)
风速20节,风向西,有时为36节阵风
能見度: 5000
多云层高于1800英尺, 塔状积云.
阵雨, 雪
成为
从 21日的 04点(UTC)到 21日的 07点(UTC)
风速14节,风向西转西北,有时为26节阵风
成为
从 21日的 16点(UTC)到 21日的 18点(UTC)
风速10节,风向西

TAF: LKCV 202300Z 2100/2200 19010KT 9999 BKN040 TEMPO 2102/2110 25018G30KT 7000 RA BKN020 OVC030 PROB30 TEMPO 2103/2110 26020G36KT 5000 SHRASN BKN018TCU BECMG 2104/2107 29014G26KT BECMG 2116/2118 28010KT

超过4000个机场的气象观测和天气预报(METAR&TAF报告)。

可查询的气象台以黄色和红色小点在地图上表示。

将鼠标移到小点上方,可查看气象台名称。

然后点击查看天气观测和预报。

如需切换地图:点击带黑十字的绿色按钮放大地图;点击带横线的绿色按钮缩小地图;或者点击绿色箭头查看邻近地区的地图。


METAR-TAF: